createdAt,value
2018-01-16T00:00:29.573Z,35.17
2018-01-16T00:02:57.170Z,28.53
2018-01-16T00:05:24.819Z,37.17
2018-01-16T00:07:52.378Z,34.73
2018-01-16T00:10:19.979Z,25.67
2018-01-16T00:12:47.571Z,31.23
2018-01-16T00:15:15.120Z,25.20
2018-01-16T00:17:42.713Z,28.03
2018-01-16T00:20:10.319Z,29.53
2018-01-16T00:22:41.922Z,32.80
2018-01-16T00:25:09.470Z,25.43
2018-01-16T00:27:37.015Z,28.93
2018-01-16T00:30:04.627Z,27.03
2018-01-16T00:32:32.178Z,30.20
2018-01-16T00:34:59.774Z,24.80
2018-01-16T00:37:27.342Z,20.00
2018-01-16T00:39:54.885Z,25.40
2018-01-16T00:42:22.474Z,30.87
2018-01-16T00:44:50.018Z,29.77
2018-01-16T00:47:17.562Z,30.20
2018-01-16T00:49:45.182Z,24.13
2018-01-16T00:52:12.787Z,23.10
2018-01-16T00:54:40.370Z,29.33
2018-01-16T00:57:07.914Z,23.50
2018-01-16T00:59:35.458Z,24.57
2018-01-16T01:02:14.972Z,21.30
2018-01-16T01:04:42.524Z,26.67
2018-01-16T01:07:10.180Z,25.40
2018-01-16T01:09:37.867Z,32.03
2018-01-16T01:12:05.470Z,30.10
2018-01-16T01:14:33.022Z,27.63
2018-01-16T01:17:00.623Z,25.30
2018-01-16T01:19:28.234Z,25.90
2018-01-16T01:21:55.834Z,24.10
2018-01-16T01:24:23.374Z,26.80
2018-01-16T01:26:50.998Z,28.93
2018-01-16T01:29:18.587Z,30.00
2018-01-16T01:31:46.202Z,27.67
2018-01-16T01:34:13.746Z,25.90
2018-01-16T01:36:41.347Z,26.00
2018-01-16T01:39:08.955Z,26.07
2018-01-16T01:41:36.542Z,31.77
2018-01-16T01:44:04.125Z,28.70
2018-01-16T01:46:31.674Z,25.40
2018-01-16T01:49:16.208Z,26.63
2018-01-16T01:51:43.751Z,29.70
2018-01-16T01:54:11.355Z,30.77
2018-01-16T01:56:38.887Z,31.27
2018-01-16T01:59:06.430Z,30.63
2018-01-16T02:01:34.094Z,40.30
2018-01-16T02:04:01.698Z,25.07
2018-01-16T02:06:29.244Z,30.87
2018-01-16T02:08:56.859Z,29.93
2018-01-16T02:11:24.402Z,27.07
2018-01-16T02:13:52.060Z,30.00
2018-01-16T02:16:19.601Z,36.20
2018-01-16T02:18:47.206Z,28.70
2018-01-16T02:21:14.820Z,34.97
2018-01-16T02:23:42.418Z,39.90
2018-01-16T02:26:10.013Z,31.30
2018-01-16T02:28:37.615Z,27.40
2018-01-16T02:31:05.158Z,32.03
2018-01-16T02:33:32.711Z,29.03
2018-01-16T02:36:00.258Z,32.47
2018-01-16T02:38:27.847Z,19.13
2018-01-16T02:40:55.394Z,35.53
2018-01-16T02:43:22.995Z,34.93
2018-01-16T02:45:50.586Z,30.43
2018-01-16T02:48:18.166Z,30.23
2018-01-16T02:50:45.785Z,31.20
2018-01-16T02:53:13.372Z,30.50
2018-01-16T02:55:40.962Z,32.33
2018-01-16T02:58:08.513Z,28.73
2018-01-16T03:00:36.062Z,29.10
2018-01-16T03:03:03.707Z,31.77
2018-01-16T03:05:31.253Z,29.50
2018-01-16T03:07:58.850Z,35.30
2018-01-16T03:10:26.399Z,34.97
2018-01-16T03:12:53.944Z,35.83
2018-01-16T03:15:21.526Z,27.10
2018-01-16T03:17:49.061Z,33.83
2018-01-16T03:20:16.653Z,35.67
2018-01-16T03:22:44.263Z,42.97
2018-01-16T03:25:12.574Z,34.10
2018-01-16T03:27:40.186Z,37.93
2018-01-16T03:30:07.761Z,32.53
2018-01-16T03:32:35.296Z,40.10
2018-01-16T03:35:02.845Z,32.30
2018-01-16T03:37:30.386Z,30.00
2018-01-16T03:39:57.974Z,37.07
2018-01-16T03:42:25.576Z,38.17
2018-01-16T03:44:53.113Z,33.13
2018-01-16T03:47:20.669Z,32.67
2018-01-16T03:49:48.266Z,34.73
2018-01-16T03:52:15.850Z,33.47
2018-01-16T03:54:43.393Z,32.30
2018-01-16T03:57:10.965Z,33.93
2018-01-16T03:59:38.513Z,38.00
2018-01-16T04:02:06.045Z,30.47
2018-01-16T04:04:33.690Z,38.63
2018-01-16T04:07:01.287Z,43.53
2018-01-16T04:09:28.825Z,40.20
2018-01-16T04:11:56.374Z,34.23
2018-01-16T04:14:23.917Z,35.13
2018-01-16T04:16:51.505Z,31.83
2018-01-16T04:19:19.072Z,44.03
2018-01-16T04:21:46.610Z,41.70
2018-01-16T04:24:14.158Z,35.10
2018-01-16T04:26:41.702Z,34.70
2018-01-16T04:29:09.289Z,47.50
2018-01-16T04:31:36.829Z,33.10
2018-01-16T04:34:04.464Z,33.10
2018-01-16T04:36:32.075Z,38.57
2018-01-16T04:38:59.622Z,34.53
2018-01-16T04:41:27.202Z,29.50
2018-01-16T04:43:54.806Z,45.67
2018-01-16T04:46:22.347Z,71.17
2018-01-16T04:48:49.959Z,40.40
2018-01-16T04:51:17.558Z,41.50
2018-01-16T04:53:45.138Z,42.67
2018-01-16T04:56:12.677Z,36.13
2018-01-16T04:58:40.318Z,40.67
2018-01-16T05:01:07.869Z,36.83
2018-01-16T05:03:35.471Z,40.23
2018-01-16T05:06:03.053Z,34.33
2018-01-16T05:08:30.662Z,33.80
2018-01-16T05:10:58.260Z,34.60
2018-01-16T05:13:25.809Z,39.17
2018-01-16T05:15:53.360Z,31.33
2018-01-16T05:18:20.938Z,31.70
2018-01-16T05:20:48.534Z,34.90
2018-01-16T05:23:16.138Z,32.60
2018-01-16T05:25:43.746Z,36.63
2018-01-16T05:28:11.286Z,38.30
2018-01-16T05:30:38.927Z,47.57
2018-01-16T05:33:06.526Z,36.23
2018-01-16T05:35:34.067Z,36.57
2018-01-16T05:38:01.613Z,42.57
2018-01-16T05:40:29.211Z,33.97
2018-01-16T05:42:56.854Z,36.27
2018-01-16T05:45:24.463Z,39.33
2018-01-16T05:47:52.002Z,38.67
2018-01-16T05:50:19.650Z,37.13
2018-01-16T05:52:47.213Z,37.70
2018-01-16T05:55:14.793Z,36.70
2018-01-16T05:57:42.391Z,31.03
2018-01-16T06:00:09.939Z,37.17
2018-01-16T06:02:37.482Z,33.20
2018-01-16T06:05:05.074Z,33.77
2018-01-16T06:07:32.718Z,32.60
2018-01-16T06:10:00.323Z,37.57
2018-01-16T06:12:27.866Z,36.70
2018-01-16T06:14:55.421Z,28.73
2018-01-16T06:17:22.962Z,64.60
2018-01-16T06:19:50.606Z,38.60
2018-01-16T06:22:18.146Z,32.27
2018-01-16T06:24:45.750Z,43.37
2018-01-16T06:27:13.401Z,26.20
2018-01-16T06:29:40.946Z,36.33
2018-01-16T06:32:08.529Z,29.30
2018-01-16T06:34:36.070Z,25.83
2018-01-16T06:37:03.671Z,31.93
2018-01-16T06:39:31.273Z,31.50
2018-01-16T06:41:58.813Z,32.00
2018-01-16T06:44:26.431Z,32.83
2018-01-16T06:46:54.035Z,28.90
2018-01-16T06:49:21.578Z,29.50
2018-01-16T06:51:49.129Z,32.40
2018-01-16T06:54:16.746Z,28.57
2018-01-16T06:56:44.335Z,25.93
2018-01-16T06:59:11.877Z,32.07
2018-01-16T07:01:39.477Z,33.53
2018-01-16T07:04:07.189Z,38.53
2018-01-16T07:06:34.730Z,34.97
2018-01-16T07:09:02.375Z,38.83
2018-01-16T07:11:29.983Z,41.40
2018-01-16T07:13:57.583Z,46.40
2018-01-16T07:16:25.134Z,37.13
2018-01-16T07:18:52.675Z,38.43
2018-01-16T07:21:20.261Z,40.80
2018-01-16T07:23:47.802Z,37.00
2018-01-16T07:26:15.342Z,40.90
2018-01-16T07:28:42.890Z,35.67
2018-01-16T07:31:10.429Z,31.10
2018-01-16T07:33:38.070Z,36.40
2018-01-16T07:36:05.706Z,37.90
2018-01-16T07:38:33.307Z,35.27
2018-01-16T07:41:00.923Z,35.70
2018-01-16T07:43:28.470Z,33.80
2018-01-16T07:45:56.085Z,28.57
2018-01-16T07:48:23.625Z,29.80
2018-01-16T07:53:18.785Z,35.90
2018-01-16T07:55:46.382Z,36.97
2018-01-16T07:58:14.050Z,38.50
2018-01-16T08:00:41.654Z,34.80
2018-01-16T08:03:09.202Z,31.73
2018-01-16T08:05:36.814Z,35.27
2018-01-16T08:08:04.411Z,36.70
2018-01-16T08:10:32.054Z,33.40
2018-01-16T08:12:59.656Z,35.60
2018-01-16T08:15:27.241Z,29.30
2018-01-16T08:17:54.820Z,27.60
2018-01-16T08:20:22.357Z,37.90
2018-01-16T08:22:49.998Z,33.33
2018-01-16T08:25:17.541Z,33.07
2018-01-16T08:27:45.075Z,40.30
2018-01-16T08:30:12.650Z,27.73
2018-01-16T08:32:40.206Z,35.80
2018-01-16T08:35:07.797Z,36.57
2018-01-16T08:37:35.338Z,32.47
2018-01-16T08:40:02.878Z,31.10
2018-01-16T08:42:30.426Z,29.20
2018-01-16T08:44:57.969Z,29.77
2018-01-16T08:47:25.556Z,30.97
2018-01-16T08:49:53.095Z,34.37
2018-01-16T08:52:21.723Z,37.23
2018-01-16T08:54:49.337Z,30.57
2018-01-16T08:57:16.879Z,32.57
2018-01-16T08:59:44.493Z,30.90
2018-01-16T09:02:12.062Z,27.20
2018-01-16T09:04:39.657Z,31.10
2018-01-16T09:07:07.202Z,49.70
2018-01-16T09:09:34.794Z,26.77
2018-01-16T09:12:02.378Z,39.50
2018-01-16T09:14:29.919Z,29.77
2018-01-16T09:16:57.453Z,34.70
2018-01-16T09:19:24.994Z,32.43
2018-01-16T09:21:52.534Z,44.00
2018-01-16T09:24:20.222Z,40.10
2018-01-16T09:26:47.770Z,35.93
2018-01-16T09:29:15.303Z,35.20
2018-01-16T09:31:42.876Z,45.67
2018-01-16T09:34:10.474Z,62.50
2018-01-16T09:36:38.053Z,37.07
2018-01-16T09:39:05.625Z,34.77
2018-01-16T09:41:33.162Z,79.90
2018-01-16T09:44:00.701Z,37.33
2018-01-16T09:46:28.239Z,26.83
2018-01-16T09:48:55.874Z,27.07
2018-01-16T09:51:23.469Z,31.93
2018-01-16T09:53:51.102Z,46.87
2018-01-16T09:56:18.649Z,53.73
2018-01-16T09:58:46.190Z,54.43
2018-01-16T10:01:13.770Z,32.73
2018-01-16T10:03:41.362Z,37.87
2018-01-16T10:06:08.906Z,35.83
2018-01-16T10:08:36.515Z,36.77
2018-01-16T10:11:04.099Z,39.40
2018-01-16T10:13:31.768Z,38.87
2018-01-16T10:15:59.370Z,29.07
2018-01-16T10:18:26.910Z,37.70
2018-01-16T10:20:54.454Z,35.40
2018-01-16T10:23:21.986Z,35.90
2018-01-16T10:25:49.569Z,41.20
2018-01-16T10:28:17.114Z,38.60
2018-01-16T10:30:44.710Z,42.47
2018-01-16T10:33:12.256Z,43.97
2018-01-16T10:35:39.905Z,57.27
2018-01-16T10:38:07.546Z,46.10
2018-01-16T10:40:35.138Z,41.47
2018-01-16T10:43:02.734Z,58.70
2018-01-16T10:45:30.287Z,51.27
2018-01-16T10:47:58.019Z,49.30
2018-01-16T10:50:25.602Z,44.77
2018-01-16T10:52:53.134Z,39.20
2018-01-16T10:55:20.677Z,32.13
2018-01-16T10:57:48.240Z,49.93
2018-01-16T11:00:15.834Z,45.67
2018-01-16T11:02:43.476Z,49.90
2018-01-16T11:05:11.074Z,42.90
2018-01-16T11:07:38.610Z,35.20
2018-01-16T11:10:06.151Z,39.73
2018-01-16T11:12:33.690Z,49.60
2018-01-16T11:15:01.294Z,44.87
2018-01-16T11:17:28.886Z,55.50
2018-01-16T11:19:56.425Z,57.77
2018-01-16T11:22:24.031Z,53.47
2018-01-16T11:24:51.569Z,52.20
2018-01-16T11:27:19.157Z,48.30
2018-01-16T11:29:46.690Z,56.00
2018-01-16T11:32:14.287Z,67.93
2018-01-16T11:34:41.949Z,55.63
2018-01-16T11:37:09.486Z,59.10
2018-01-16T11:39:37.122Z,60.67
2018-01-16T11:42:04.655Z,60.97
2018-01-16T11:44:32.185Z,62.37
2018-01-16T11:46:59.734Z,71.13
2018-01-16T11:49:27.326Z,68.90
2018-01-16T11:51:54.906Z,69.10
2018-01-16T11:54:22.434Z,68.30
2018-01-16T11:56:50.022Z,64.77
2018-01-16T11:59:17.566Z,70.20
2018-01-16T12:01:45.102Z,55.97
2018-01-16T12:04:12.774Z,69.67
2018-01-16T12:06:40.334Z,70.40
2018-01-16T12:09:07.866Z,76.23
2018-01-16T12:11:35.472Z,65.67
2018-01-16T12:14:03.106Z,61.57
2018-01-16T12:16:30.719Z,59.37
2018-01-16T12:18:58.327Z,57.67
2018-01-16T12:21:25.857Z,64.93
2018-01-16T12:23:53.399Z,59.63
2018-01-16T12:26:20.934Z,62.00
2018-01-16T12:28:48.514Z,60.50
2018-01-16T12:31:16.118Z,52.53
2018-01-16T12:33:43.706Z,53.30
2018-01-16T12:36:11.348Z,46.67
2018-01-16T12:38:38.938Z,47.60
2018-01-16T12:41:06.537Z,45.93
2018-01-16T12:43:34.074Z,57.10
2018-01-16T12:46:01.671Z,50.70
2018-01-16T12:48:29.222Z,53.30
2018-01-16T12:50:56.809Z,33.93
2018-01-16T12:53:24.414Z,30.90
2018-01-16T12:55:51.950Z,25.93
2018-01-16T12:58:19.547Z,28.70
2018-01-16T13:00:47.121Z,31.27
2018-01-16T13:03:14.659Z,34.83
2018-01-16T13:05:42.263Z,34.13
2018-01-16T13:08:09.850Z,29.93
2018-01-16T13:10:37.382Z,41.23
2018-01-16T13:13:04.922Z,37.57
2018-01-16T13:15:32.494Z,32.87
2018-01-16T13:18:00.076Z,38.83
2018-01-16T13:20:27.666Z,37.90
2018-01-16T13:22:55.258Z,31.83
2018-01-16T13:25:22.798Z,38.33
2018-01-16T13:27:50.337Z,33.37
2018-01-16T13:30:17.916Z,38.00
2018-01-16T13:32:45.450Z,36.53
2018-01-16T13:35:12.986Z,35.80
2018-01-16T13:37:40.586Z,36.80
2018-01-16T13:40:08.122Z,43.80
2018-01-16T13:42:35.806Z,30.50
2018-01-16T13:45:03.347Z,44.77
2018-01-16T13:47:30.952Z,36.30
2018-01-16T13:49:58.489Z,30.47
2018-01-16T13:52:26.026Z,35.53
2018-01-16T13:54:53.667Z,43.43
2018-01-16T13:57:21.259Z,32.00
2018-01-16T13:59:48.850Z,25.43
2018-01-16T14:02:16.390Z,27.03
2018-01-16T14:04:43.918Z,26.30
2018-01-16T14:07:11.554Z,31.50
2018-01-16T14:09:39.095Z,26.87
2018-01-16T14:12:06.695Z,34.93
2018-01-16T14:14:34.238Z,27.00
2018-01-16T14:17:01.770Z,46.77
2018-01-16T14:19:29.359Z,207.90
2018-01-16T14:21:56.894Z,37.83
2018-01-16T14:24:24.425Z,32.63
2018-01-16T14:26:52.031Z,53.37
2018-01-16T14:29:19.566Z,62.50
2018-01-16T14:31:47.202Z,30.20
2018-01-16T14:34:14.738Z,31.33
2018-01-16T14:36:42.330Z,27.00
2018-01-16T14:39:09.882Z,30.67
2018-01-16T14:41:37.483Z,27.03
2018-01-16T14:44:05.130Z,31.30
2018-01-16T14:46:32.665Z,40.20
2018-01-16T14:49:00.213Z,37.37
2018-01-16T14:51:27.827Z,42.07
2018-01-16T14:53:55.360Z,39.90
2018-01-16T14:56:22.998Z,33.60
2018-01-16T14:58:49.829Z,40.93
2018-01-16T15:01:17.371Z,34.87
2018-01-16T15:03:44.918Z,38.40
2018-01-16T15:06:12.516Z,36.60
2018-01-16T15:08:40.102Z,35.03
2018-01-16T15:11:07.648Z,42.47
2018-01-16T15:13:35.234Z,39.33
2018-01-16T15:16:02.830Z,34.97
2018-01-16T15:18:30.426Z,37.27
2018-01-16T15:20:58.035Z,37.83
2018-01-16T15:23:25.630Z,40.47
2018-01-16T15:25:53.234Z,30.67
2018-01-16T15:28:20.773Z,35.03
2018-01-16T15:30:48.384Z,37.63
2018-01-16T15:33:15.920Z,33.77
2018-01-16T15:35:43.491Z,34.40
2018-01-16T15:38:11.034Z,38.23
2018-01-16T15:40:38.602Z,36.00
2018-01-16T15:43:06.162Z,36.40
2018-01-16T15:45:33.694Z,30.77
2018-01-16T15:48:01.286Z,33.20
2018-01-16T15:50:28.841Z,30.80
2018-01-16T15:52:56.374Z,37.40
2018-01-16T15:55:23.918Z,37.80
2018-01-16T15:57:51.514Z,40.17
2018-01-16T16:00:19.150Z,40.33
2018-01-16T16:02:46.750Z,37.47
2018-01-16T16:05:14.294Z,38.57
2018-01-16T16:07:41.838Z,36.27
2018-01-16T16:10:09.370Z,35.77
2018-01-16T16:12:37.015Z,40.60
2018-01-16T16:15:04.549Z,37.83
2018-01-16T16:17:32.142Z,36.47
2018-01-16T16:19:59.742Z,30.97
2018-01-16T16:22:27.282Z,44.07
2018-01-16T16:24:54.870Z,130.30
2018-01-16T16:27:22.413Z,132.70
2018-01-16T16:29:50.052Z,137.57
2018-01-16T16:32:17.591Z,130.77
2018-01-16T16:34:45.129Z,100.07
2018-01-16T16:37:12.808Z,115.60
2018-01-16T16:39:40.337Z,116.27
2018-01-16T16:42:07.906Z,125.63
2018-01-16T16:44:35.521Z,143.63
2018-01-16T16:47:03.106Z,131.50
2018-01-16T16:49:30.654Z,115.57
2018-01-16T16:51:58.194Z,112.03
2018-01-16T16:54:25.749Z,116.70
2018-01-16T16:56:53.294Z,128.07
2018-01-16T16:59:20.881Z,132.13
2018-01-16T17:01:48.483Z,133.87
2018-01-16T17:04:16.066Z,107.90
2018-01-16T17:06:43.621Z,111.50
2018-01-16T17:09:11.162Z,112.93
2018-01-16T17:11:38.710Z,106.37
2018-01-16T17:14:06.312Z,105.33
2018-01-16T17:16:33.968Z,96.87
2018-01-16T17:19:01.574Z,131.30
2018-01-16T17:21:29.179Z,118.00
2018-01-16T17:23:56.730Z,164.67
2018-01-16T17:26:24.274Z,216.57
2018-01-16T17:28:51.833Z,181.13
2018-01-16T17:31:19.371Z,178.70
2018-01-16T17:33:46.980Z,180.20
2018-01-16T17:36:14.579Z,222.30
2018-01-16T17:38:42.122Z,260.80
2018-01-16T17:41:09.718Z,254.90
2018-01-16T17:43:37.262Z,224.77
2018-01-16T17:46:04.826Z,286.83
2018-01-16T17:48:32.434Z,223.73
2018-01-16T17:51:00.055Z,234.23
2018-01-16T17:53:27.593Z,185.57
2018-01-16T17:55:55.137Z,157.33
2018-01-16T17:58:22.746Z,143.63
2018-01-16T18:00:50.366Z,113.20
2018-01-16T18:03:17.926Z,113.77
2018-01-16T18:05:45.471Z,114.27
2018-01-16T18:08:13.089Z,155.33
2018-01-16T18:10:40.691Z,164.23
2018-01-16T18:13:08.230Z,154.90
2018-01-16T18:15:35.779Z,115.80
2018-01-16T18:18:03.472Z,114.53
2018-01-16T18:20:31.022Z,129.83
2018-01-16T18:22:58.629Z,130.47
2018-01-16T18:25:26.285Z,130.03
2018-01-16T18:27:53.850Z,122.87
2018-01-16T18:30:21.460Z,101.63
2018-01-16T18:32:49.011Z,110.07
2018-01-16T18:35:16.558Z,113.80
2018-01-16T18:37:44.170Z,105.27
2018-01-16T18:40:11.768Z,92.33
2018-01-16T18:42:39.372Z,97.47
2018-01-16T18:45:06.926Z,85.90
2018-01-16T18:47:34.466Z,80.20
2018-01-16T18:50:02.086Z,73.73
2018-01-16T18:52:29.630Z,81.63
2018-01-16T18:54:57.165Z,71.63
2018-01-16T18:57:24.721Z,71.43
2018-01-16T18:59:52.379Z,86.30
2018-01-16T19:02:19.929Z,71.80
2018-01-16T19:04:47.470Z,80.13
2018-01-16T19:07:15.144Z,81.00
2018-01-16T19:09:42.684Z,83.83
2018-01-16T19:12:10.241Z,89.43
2018-01-16T19:14:37.850Z,77.43
2018-01-16T19:17:05.490Z,86.00
2018-01-16T19:19:33.035Z,92.40
2018-01-16T19:22:00.638Z,89.53
2018-01-16T19:24:28.222Z,90.77
2018-01-16T19:26:55.819Z,88.57
2018-01-16T19:29:23.358Z,86.33
2018-01-16T19:31:50.972Z,88.33
2018-01-16T19:34:18.578Z,85.53
2018-01-16T19:36:46.121Z,85.47
2018-01-16T19:39:13.715Z,80.10
2018-01-16T19:41:41.390Z,87.90
2018-01-16T19:44:08.930Z,80.33
2018-01-16T19:46:37.394Z,89.67
2018-01-16T19:49:04.987Z,75.77
2018-01-16T19:51:32.596Z,76.03
2018-01-16T19:54:00.181Z,83.07
2018-01-16T19:56:27.730Z,80.03
2018-01-16T19:58:55.370Z,84.07
2018-01-16T20:01:22.975Z,81.73
2018-01-16T20:03:50.579Z,96.17
2018-01-16T20:06:18.131Z,83.40
2018-01-16T20:08:45.669Z,84.40
2018-01-16T20:11:13.215Z,79.57
2018-01-16T20:13:40.791Z,73.80
2018-01-16T20:16:08.329Z,73.43
2018-01-16T20:18:35.897Z,80.33
2018-01-16T20:21:03.495Z,70.23
2018-01-16T20:23:31.123Z,69.97
2018-01-16T20:25:58.969Z,75.63
2018-01-16T20:28:26.550Z,77.40
2018-01-16T20:30:54.107Z,77.40
2018-01-16T20:33:21.706Z,157.87
2018-01-16T20:35:49.318Z,106.80
2018-01-16T20:38:16.919Z,121.80
2018-01-16T20:40:44.520Z,135.67
2018-01-16T20:43:12.064Z,177.57
2018-01-16T20:45:39.659Z,140.63
2018-01-16T20:48:07.207Z,128.73
2018-01-16T20:50:34.750Z,148.03
2018-01-16T20:53:02.298Z,128.37
2018-01-16T20:55:29.904Z,128.77
2018-01-16T20:57:57.540Z,110.73
2018-01-16T21:00:25.085Z,120.53
2018-01-16T21:02:52.634Z,131.27
2018-01-16T21:05:20.174Z,87.77
2018-01-16T21:07:47.710Z,60.37
2018-01-16T21:10:15.323Z,112.03
2018-01-16T21:12:42.866Z,109.63
2018-01-16T21:15:10.511Z,100.40
2018-01-16T21:17:38.082Z,102.20
2018-01-16T21:20:05.622Z,97.00
2018-01-16T21:22:33.167Z,86.33
2018-01-16T21:25:00.702Z,98.80
2018-01-16T21:27:28.306Z,96.00
2018-01-16T21:29:55.850Z,84.53
2018-01-16T21:32:23.482Z,83.10
2018-01-16T21:34:51.090Z,79.00
2018-01-16T21:37:18.631Z,68.77
2018-01-16T21:39:46.174Z,70.70
2018-01-16T21:42:13.706Z,77.73
2018-01-16T21:44:41.247Z,73.37
2018-01-16T21:47:08.847Z,81.03
2018-01-16T21:49:36.432Z,81.37
2018-01-16T21:52:03.986Z,98.50
2018-01-16T21:54:31.530Z,101.73
2018-01-16T21:56:59.139Z,73.87
2018-01-16T21:59:26.686Z,63.97
2018-01-16T22:01:54.330Z,66.13
2018-01-16T22:04:21.874Z,66.60
2018-01-16T22:06:49.462Z,62.90
2018-01-16T22:09:17.002Z,65.23
2018-01-16T22:11:44.594Z,63.50
2018-01-16T22:14:12.211Z,82.23
2018-01-16T22:16:39.761Z,75.47
2018-01-16T22:19:07.391Z,69.13
2018-01-16T22:21:34.930Z,73.57
2018-01-16T22:24:02.574Z,84.83
2018-01-16T22:26:30.247Z,74.43
2018-01-16T22:28:57.792Z,74.00
2018-01-16T22:31:25.342Z,75.80
2018-01-16T22:33:52.919Z,65.80
2018-01-16T22:36:20.472Z,58.80
2018-01-16T22:38:48.073Z,63.53
2018-01-16T22:41:15.691Z,77.23
2018-01-16T22:43:43.234Z,68.13
2018-01-16T22:46:10.774Z,66.67
2018-01-16T22:48:38.325Z,66.33
2018-01-16T22:51:05.935Z,64.43
2018-01-16T22:53:33.482Z,62.80
2018-01-16T22:56:01.082Z,59.00
2018-01-16T22:58:28.734Z,58.73
2018-01-16T23:00:56.330Z,65.97
2018-01-16T23:03:23.867Z,64.10
2018-01-16T23:05:51.414Z,60.90
2018-01-16T23:08:18.950Z,57.67
2018-01-16T23:10:46.494Z,56.57
2018-01-16T23:13:14.086Z,64.87
2018-01-16T23:15:41.686Z,59.70
2018-01-16T23:18:09.218Z,55.37
2018-01-16T23:20:36.754Z,47.27
2018-01-16T23:23:04.298Z,50.10
2018-01-16T23:25:31.890Z,53.33
2018-01-16T23:27:59.577Z,45.13
2018-01-16T23:30:27.174Z,46.73
2018-01-16T23:32:54.778Z,43.80
2018-01-16T23:35:22.377Z,50.93
2018-01-16T23:37:49.960Z,40.17
2018-01-16T23:40:17.490Z,43.73
2018-01-16T23:42:45.026Z,50.23
2018-01-16T23:45:12.626Z,46.20
2018-01-16T23:47:40.166Z,40.37
2018-01-16T23:50:07.830Z,43.70
2018-01-16T23:52:35.369Z,51.10
2018-01-16T23:55:02.903Z,41.13
2018-01-16T23:57:30.506Z,42.43
2018-01-16T23:59:58.103Z,55.80
